Time;durP1;ratioP1;P1;durP2;ratioP2;P2;SDS_P1;SDS_P2;PMS_P1;PMS_P2;Temp;Humidity;BMP_temperature;BMP_pressure;BME280_temperature;BME280_humidity;BME280_pressure;Samples;Min_cycle;Max_cycle;Signal;HPM_P1;HPM_P2
2024/03/07 06:00:26;;;;;;;62.50;34.72;;;4.90;96.30;;;;;;4923335;23;20030;-78
2024/03/07 06:02:28;;;;;;;60.58;33.15;;;4.80;96.00;;;;;;4068735;29;20082;-80
2024/03/07 06:04:31;;;;;;;59.75;34.47;;;4.90;96.10;;;;;;4068826;29;20127;-80
2024/03/07 06:06:35;;;;;;;58.95;34.08;;;4.90;95.80;;;;;;4068739;29;20049;-79
2024/03/07 06:08:37;;;;;;;57.00;31.45;;;4.80;95.60;;;;;;4068968;29;20048;-79
2024/03/07 06:10:40;;;;;;;57.20;32.90;;;4.80;95.50;;;;;;4068750;29;20056;-78
2024/03/07 06:12:45;;;;;;;55.95;32.05;;;4.90;95.50;;;;;;4068466;29;20135;-80
2024/03/07 06:14:49;;;;;;;53.13;30.88;;;4.90;95.50;;;;;;4068763;29;20055;-79
2024/03/07 06:16:52;;;;;;;56.35;31.80;;;4.80;95.30;;;;;;4068920;29;20048;-80
2024/03/07 06:18:54;;;;;;;57.85;33.63;;;4.80;95.30;;;;;;4068770;29;20048;-78
2024/03/07 06:20:55;;;;;;;55.05;31.95;;;4.80;95.70;;;;;;4068590;29;20043;-79
2024/03/07 06:22:58;;;;;;;53.35;31.20;;;4.80;95.50;;;;;;4068781;29;20056;-80
2024/03/07 06:25:06;;;;;;;56.83;33.00;;;4.90;95.30;;;;;;4069044;29;20059;-79
2024/03/07 06:27:16;;;;;;;61.47;33.85;;;4.90;95.40;;;;;;4068919;29;20059;-79
2024/03/07 06:29:19;;;;;;;59.65;33.45;;;4.80;95.20;;;;;;4068790;29;20044;-80
2024/03/07 06:31:20;;;;;;;57.58;33.28;;;4.80;95.60;;;;;;4068807;29;20056;-77
2024/03/07 06:33:25;;;;;;;59.85;34.97;;;4.80;95.70;;;;;;4079619;29;20115;-80
2024/03/07 06:35:26;;;;;;;57.97;32.92;;;4.90;95.40;;;;;;4084661;29;20417;-79
2024/03/07 06:37:28;;;;;;;56.08;32.90;;;4.90;95.60;;;;;;4084508;29;20086;-80
2024/03/07 06:39:29;;;;;;;57.10;33.15;;;5.00;95.60;;;;;;4084284;29;20055;-79
2024/03/07 06:41:32;;;;;;;64.47;34.42;;;5.00;95.80;;;;;;4084247;29;20099;-78
2024/03/07 06:43:34;;;;;;;63.17;35.05;;;5.00;95.60;;;;;;4084897;29;20055;-79
2024/03/07 06:45:36;;;;;;;59.33;34.38;;;5.00;95.50;;;;;;4084354;29;20115;-78
2024/03/07 06:47:38;;;;;;;62.58;34.90;;;5.00;95.60;;;;;;4084735;29;20052;-78
2024/03/07 06:49:41;;;;;;;63.88;34.63;;;4.90;95.40;;;;;;4084667;29;20194;-78
2024/03/07 06:51:43;;;;;;;58.58;33.97;;;5.00;95.70;;;;;;4084351;29;20099;-78
2024/03/07 06:53:46;;;;;;;60.38;33.78;;;5.00;95.80;;;;;;4084542;29;20060;-79
2024/03/07 06:55:48;;;;;;;59.10;34.42;;;5.00;95.80;;;;;;4085020;29;20390;-78
2024/03/07 06:57:50;;;;;;;61.67;34.13;;;5.00;95.60;;;;;;4073155;29;20080;-79
2024/03/07 06:59:52;;;;;;;62.03;35.13;;;5.00;95.70;;;;;;4068439;29;20446;-79
2024/03/07 07:01:58;;;;;;;63.50;34.65;;;5.00;95.80;;;;;;4068699;29;20102;-79
2024/03/07 07:04:03;;;;;;;65.55;36.53;;;5.00;95.80;;;;;;4068710;29;20053;-79
2024/03/07 07:06:07;;;;;;;62.95;35.90;;;5.00;95.90;;;;;;4069075;29;20414;-79
2024/03/07 07:08:08;;;;;;;62.10;34.65;;;5.00;96.00;;;;;;4072556;29;20482;-80
2024/03/07 07:10:15;;;;;;;63.97;35.83;;;5.10;96.00;;;;;;4072824;29;20075;-79
2024/03/07 07:12:19;;;;;;;64.97;34.70;;;5.00;95.90;;;;;;4072090;29;20060;-76
2024/03/07 07:14:21;;;;;;;63.38;35.03;;;5.10;96.10;;;;;;4082838;29;20052;-79
2024/03/07 07:16:23;;;;;;;70.18;39.30;;;5.00;96.10;;;;;;4082719;29;20047;-79
2024/03/07 07:18:24;;;;;;;77.22;43.10;;;5.00;96.20;;;;;;4082874;29;20482;-79
2024/03/07 07:20:27;;;;;;;69.68;38.08;;;5.10;96.30;;;;;;4083051;29;20075;-77
2024/03/07 07:22:30;;;;;;;74.57;40.90;;;5.00;96.40;;;;;;4095613;29;20054;-79
2024/03/07 07:24:34;;;;;;;72.45;39.17;;;5.00;96.30;;;;;;4090890;29;20051;-80
2024/03/07 07:26:35;;;;;;;77.57;42.65;;;5.00;96.40;;;;;;4087312;29;20056;-80
2024/03/07 07:28:37;;;;;;;77.50;42.97;;;5.00;96.30;;;;;;4087186;29;20398;-79
2024/03/07 07:30:39;;;;;;;80.03;42.40;;;5.00;96.40;;;;;;4087135;29;20079;-78
2024/03/07 07:32:41;;;;;;;69.75;38.50;;;5.10;96.20;;;;;;4086569;29;20102;-79
2024/03/07 07:34:44;;;;;;;66.75;35.53;;;5.00;96.20;;;;;;4086900;29;20055;-79
2024/03/07 07:36:46;;;;;;;67.53;37.17;;;5.00;96.40;;;;;;4087304;29;20055;-80
2024/03/07 07:38:50;;;;;;;69.10;34.65;;;5.00;96.30;;;;;;4086960;29;20052;-78
2024/03/07 07:40:51;;;;;;;58.55;32.45;;;5.00;96.10;;;;;;4087194;29;20044;-79
2024/03/07 07:42:53;;;;;;;65.65;36.88;;;5.00;96.40;;;;;;4087067;29;20087;-78
2024/03/07 07:44:55;;;;;;;62.58;36.35;;;5.00;96.70;;;;;;4086424;29;20078;-79
2024/03/07 07:46:57;;;;;;;64.53;35.40;;;5.10;96.80;;;;;;4076565;29;20100;-78
2024/03/07 07:48:59;;;;;;;69.68;35.72;;;5.10;96.30;;;;;;4071281;29;20088;-78
2024/03/07 07:51:00;;;;;;;63.97;35.05;;;5.10;96.10;;;;;;4070827;29;20443;-78
2024/03/07 07:53:07;;;;;;;59.58;35.22;;;5.10;96.20;;;;;;4071036;29;20056;-77
2024/03/07 07:55:14;;;;;;;68.28;37.30;;;5.20;96.00;;;;;;4070955;29;20048;-76
2024/03/07 07:57:16;;;;;;;93.22;48.15;;;5.20;96.00;;;;;;4070761;29;20056;-79
2024/03/07 07:59:17;;;;;;;202.45;79.07;;;5.30;96.10;;;;;;4070490;29;20051;-78
2024/03/07 08:01:19;;;;;;;190.98;105.13;;;5.30;96.20;;;;;;4070779;29;20095;-75
2024/03/07 08:03:22;;;;;;;188.23;97.80;;;5.40;97.00;;;;;;4070407;29;20482;-77
2024/03/07 08:05:25;;;;;;;108.85;53.50;;;5.50;96.80;;;;;;4070835;29;20442;-78
2024/03/07 08:07:27;;;;;;;68.75;37.85;;;5.50;96.30;;;;;;4070671;29;20052;-80
2024/03/07 08:09:29;;;;;;;76.13;41.40;;;5.50;95.90;;;;;;4070494;29;20080;-80
2024/03/07 08:11:31;;;;;;;63.55;35.17;;;5.50;95.90;;;;;;4070685;29;20048;-78
2024/03/07 08:13:33;;;;;;;90.57;50.58;;;5.50;95.70;;;;;;4070428;29;20068;-79
2024/03/07 08:15:35;;;;;;;110.82;60.65;;;5.60;96.40;;;;;;4070600;29;20137;-77
2024/03/07 08:17:37;;;;;;;100.30;51.08;;;5.70;96.30;;;;;;4069810;29;20475;-79
2024/03/07 08:19:38;;;;;;;109.72;54.20;;;5.60;95.40;;;;;;4071371;29;20091;-76
2024/03/07 08:21:40;;;;;;;120.85;58.95;;;5.60;95.50;;;;;;4073076;29;20056;-77
2024/03/07 08:23:41;;;;;;;82.47;42.70;;;5.60;95.50;;;;;;4072395;29;20048;-78
2024/03/07 08:25:43;;;;;;;62.70;35.13;;;5.60;95.30;;;;;;4070616;29;20115;-79
2024/03/07 08:27:47;;;;;;;66.53;34.28;;;5.70;95.30;;;;;;4070622;29;20044;-78
2024/03/07 08:29:49;;;;;;;102.35;54.13;;;5.70;95.40;;;;;;4070213;29;20063;-79
2024/03/07 08:31:51;;;;;;;71.32;37.92;;;5.70;95.40;;;;;;4070110;29;20454;-78
2024/03/07 08:33:53;;;;;;;68.00;36.78;;;5.80;95.60;;;;;;4069900;29;20052;-78
2024/03/07 08:35:55;;;;;;;61.95;35.97;;;5.80;95.40;;;;;;4078912;29;20039;-78
2024/03/07 08:37:57;;;;;;;63.45;35.55;;;5.80;95.20;;;;;;4086145;29;20143;-80
2024/03/07 08:39:58;;;;;;;80.05;43.88;;;5.70;94.90;;;;;;4085942;29;20099;-78
2024/03/07 08:42:00;;;;;;;83.68;43.55;;;5.80;95.20;;;;;;4085632;29;20047;-79
2024/03/07 08:44:03;;;;;;;64.53;38.13;;;5.80;95.30;;;;;;4085859;29;20103;-77
2024/03/07 08:46:05;;;;;;;66.63;37.47;;;5.80;94.90;;;;;;4085879;29;20453;-80
2024/03/07 08:48:08;;;;;;;70.35;37.72;;;5.70;94.60;;;;;;4085643;29;20056;-76
2024/03/07 08:50:11;;;;;;;105.57;52.42;;;5.70;94.70;;;;;;4086091;29;20047;-78
2024/03/07 08:52:12;;;;;;;66.10;35.67;;;5.70;95.00;;;;;;4085997;29;20047;-78
2024/03/07 08:54:14;;;;;;;63.10;34.63;;;5.70;94.80;;;;;;4085627;29;20107;-79
2024/03/07 08:56:16;;;;;;;116.80;56.22;;;5.60;94.90;;;;;;4086101;29;20422;-80
2024/03/07 08:58:18;;;;;;;101.40;50.10;;;5.60;95.40;;;;;;4085674;29;20107;-80
2024/03/07 09:00:22;;;;;;;67.28;34.67;;;5.70;95.10;;;;;;4084473;29;20477;-79
2024/03/07 09:02:24;;;;;;;59.42;34.30;;;5.70;94.70;;;;;;4085598;29;20548;-79
2024/03/07 09:04:26;;;;;;;60.40;34.70;;;5.60;94.90;;;;;;4085605;29;20050;-79
2024/03/07 09:06:27;;;;;;;61.85;34.33;;;5.60;94.90;;;;;;4085523;29;20482;-75
2024/03/07 09:08:30;;;;;;;57.30;33.13;;;5.70;95.10;;;;;;4085045;29;20107;-78
2024/03/07 09:10:31;;;;;;;68.38;38.22;;;5.70;94.90;;;;;;4085907;29;20194;-77
2024/03/07 09:12:33;;;;;;;61.17;33.83;;;5.80;95.30;;;;;;4085888;29;20446;-79
2024/03/07 09:14:35;;;;;;;63.38;34.25;;;5.90;95.20;;;;;;4085094;29;20048;-80
2024/03/07 09:16:39;;;;;;;80.60;43.28;;;5.90;95.00;;;;;;4085571;29;20052;-80
2024/03/07 09:18:42;;;;;;;61.80;34.15;;;6.00;94.90;;;;;;4085786;29;20047;-78
2024/03/07 09:20:44;;;;;;;101.25;48.42;;;6.00;95.00;;;;;;4084987;29;20474;-79
2024/03/07 09:22:47;;;;;;;62.95;35.83;;;6.00;95.20;;;;;;4085467;29;20442;-80
2024/03/07 09:24:48;;;;;;;83.88;44.00;;;6.10;95.10;;;;;;4078354;29;20079;-79
2024/03/07 09:26:51;;;;;;;76.20;40.42;;;6.10;95.30;;;;;;4069144;29;20111;-80
2024/03/07 09:28:55;;;;;;;57.33;33.78;;;6.20;95.10;;;;;;4069773;29;20127;-79
2024/03/07 09:30:57;;;;;;;56.90;33.70;;;6.20;94.80;;;;;;4069566;29;20048;-79
2024/03/07 09:33:01;;;;;;;55.88;32.33;;;6.20;94.30;;;;;;4069544;29;20560;-79
2024/03/07 09:35:02;;;;;;;56.85;32.08;;;6.20;94.40;;;;;;4069583;29;20485;-78
2024/03/07 09:37:06;;;;;;;57.95;34.38;;;6.10;94.70;;;;;;4069502;29;20044;-79
2024/03/07 09:39:09;;;;;;;56.85;32.50;;;6.10;94.80;;;;;;4068990;29;20106;-80
2024/03/07 09:41:12;;;;;;;54.45;32.22;;;6.20;94.90;;;;;;4069715;29;20048;-78
2024/03/07 09:43:14;;;;;;;58.55;35.08;;;6.20;95.00;;;;;;4069458;29;20052;-77
2024/03/07 09:45:18;;;;;;;59.50;34.63;;;6.30;95.30;;;;;;4068758;29;20453;-80
2024/03/07 09:47:21;;;;;;;74.03;38.25;;;6.30;95.50;;;;;;4069541;29;20565;-78
2024/03/07 09:49:25;;;;;;;63.22;34.63;;;6.40;95.70;;;;;;4077160;29;20051;-78
2024/03/07 09:51:29;;;;;;;57.47;35.00;;;6.40;95.70;;;;;;4085330;29;20409;-78
2024/03/07 09:53:30;;;;;;;59.17;33.58;;;6.50;95.60;;;;;;4084490;29;20088;-80
2024/03/07 09:55:32;;;;;;;69.15;36.85;;;6.50;95.70;;;;;;4085107;29;20058;-78
2024/03/07 09:57:35;;;;;;;70.68;38.58;;;6.60;95.50;;;;;;4085128;29;20107;-78
2024/03/07 09:59:39;;;;;;;69.10;39.30;;;6.60;95.20;;;;;;4084830;29;20052;-77
2024/03/07 10:01:45;;;;;;;81.68;44.80;;;6.60;95.10;;;;;;4084934;29;20457;-79
2024/03/07 10:03:49;;;;;;;63.30;33.53;;;6.60;95.20;;;;;;4085199;29;20468;-79
2024/03/07 10:05:53;;;;;;;73.30;38.72;;;6.60;94.90;;;;;;4084524;29;20107;-77
2024/03/07 10:07:55;;;;;;;62.30;35.42;;;6.70;94.20;;;;;;4084846;29;20075;-80
2024/03/07 10:09:59;;;;;;;61.40;32.92;;;6.60;94.10;;;;;;4085155;29;20103;-77
2024/03/07 10:12:02;;;;;;;60.53;32.15;;;6.70;94.00;;;;;;4084475;29;20052;-80
2024/03/07 10:14:04;;;;;;;59.47;32.35;;;6.70;93.70;;;;;;4075654;29;20050;-79
2024/03/07 10:16:07;;;;;;;60.38;32.15;;;6.70;93.20;;;;;;4069275;29;20405;-79
2024/03/07 10:18:10;;;;;;;58.20;30.55;;;6.80;93.70;;;;;;4068608;29;20047;-80
2024/03/07 10:20:13;;;;;;;56.70;30.83;;;6.80;93.40;;;;;;4069042;29;20438;-78
2024/03/07 10:22:17;;;;;;;61.88;32.83;;;6.80;93.50;;;;;;4069122;29;20430;-78
2024/03/07 10:24:25;;;;;;;63.20;33.40;;;6.80;93.30;;;;;;4068857;29;20099;-76
2024/03/07 10:26:28;;;;;;;57.10;29.42;;;6.90;93.50;;;;;;4068622;29;20043;-79
2024/03/07 10:28:30;;;;;;;56.80;29.42;;;6.90;93.40;;;;;;4069369;29;20080;-78
2024/03/07 10:30:41;;;;;;;62.83;32.40;;;6.90;93.10;;;;;;4068930;29;20100;-79
2024/03/07 10:32:43;;;;;;;100.80;45.55;;;7.00;92.40;;;;;;4068488;29;20103;-80
2024/03/07 10:34:46;;;;;;;52.85;28.10;;;7.00;91.70;;;;;;4068904;29;20052;-78
2024/03/07 10:36:47;;;;;;;50.95;28.45;;;6.90;91.20;;;;;;4068952;29;20048;-76
2024/03/07 10:38:55;;;;;;;46.72;25.60;;;6.90;91.80;;;;;;4069653;29;20052;-78
2024/03/07 10:40:56;;;;;;;47.53;25.63;;;7.00;91.90;;;;;;4069467;29;20056;-78
2024/03/07 10:43:02;;;;;;;47.40;26.13;;;7.00;92.00;;;;;;4072221;29;20081;-77
2024/03/07 10:45:10;;;;;;;;;;;7.10;92.40;;;;;;4071754;29;20079;-78
2024/03/07 10:47:17;;;;;;;49.80;26.60;;;7.10;92.20;;;;;;4071875;29;19930;-78
2024/03/07 10:49:23;;;;;;;49.03;26.13;;;7.10;92.10;;;;;;4072138;29;20060;-76
2024/03/07 10:51:31;;;;;;;;;;;7.20;92.40;;;;;;4072129;29;20052;-77
2024/03/07 10:53:42;;;;;;;68.03;34.15;;;7.30;92.50;;;;;;4071495;29;20356;-78
2024/03/07 10:56:06;;;;;;;65.05;32.65;;;7.30;91.90;;;;;;4071186;29;20048;-78
2024/03/07 10:58:17;;;;;;;83.60;39.72;;;7.40;91.90;;;;;;4071135;29;20044;-79
2024/03/07 11:00:29;;;;;;;89.95;42.50;;;7.50;92.10;;;;;;4071369;29;20111;-78
2024/03/07 11:02:39;;;;;;;51.25;27.77;;;7.70;92.00;;;;;;4071302;29;20112;-77
2024/03/07 11:04:40;;;;;;;62.33;31.08;;;7.90;91.40;;;;;;4085490;29;20143;-79
2024/03/07 11:06:42;;;;;;;109.13;48.30;;;8.00;90.80;;;;;;4087457;29;20414;-78
2024/03/07 11:08:45;;;;;;;58.47;30.50;;;8.20;91.60;;;;;;4087073;29;20490;-78
2024/03/07 11:10:48;;;;;;;168.93;65.90;;;8.30;91.90;;;;;;4087436;29;20094;-77
2024/03/07 11:12:51;;;;;;;53.40;26.50;;;8.30;90.40;;;;;;4087197;29;20450;-78
2024/03/07 11:14:54;;;;;;;52.83;27.27;;;8.40;91.10;;;;;;4081957;29;20056;-77
2024/03/07 11:16:57;;;;;;;204.77;83.03;;;8.60;90.80;;;;;;4053963;29;20444;-79
2024/03/07 11:19:22;;;;;;;68.35;33.92;;;8.70;90.10;;;;;;4053951;29;20286;-79
2024/03/07 11:21:42;;;;;;;;;;;8.80;88.90;;;;;;4053944;29;20087;-78
2024/03/07 11:23:46;;;;;;;51.90;27.27;;;8.90;87.70;;;;;;4053589;29;19959;-79
2024/03/07 11:25:50;;;;;;;77.90;33.63;;;9.00;87.20;;;;;;4053793;29;20071;-77
2024/03/07 11:27:55;;;;;;;49.45;26.50;;;9.10;87.10;;;;;;4053685;29;20056;-78
2024/03/07 11:30:07;;;;;;;76.22;35.45;;;9.10;87.40;;;;;;4079056;29;20489;-79
2024/03/07 11:32:11;;;;;;;91.63;41.28;;;9.20;86.30;;;;;;4085160;29;20479;-78
2024/03/07 11:34:15;;;;;;;47.42;25.58;;;9.20;87.10;;;;;;4075861;29;20435;-78
2024/03/07 11:36:44;;;;;;;52.72;26.73;;;9.20;86.60;;;;;;4069041;29;20056;-78
2024/03/07 11:38:48;;;;;;;45.20;25.40;;;9.30;86.10;;;;;;4068515;29;20048;-77
2024/03/07 11:40:52;;;;;;;43.38;24.63;;;9.20;85.00;;;;;;4069267;29;20466;-79
2024/03/07 11:42:56;;;;;;;48.28;26.98;;;9.20;85.20;;;;;;4069184;29;20052;-78
2024/03/07 11:44:59;;;;;;;46.42;24.77;;;9.20;85.50;;;;;;4068771;29;20063;-79
2024/03/07 11:47:08;;;;;;;53.13;27.30;;;9.20;85.50;;;;;;4069304;29;20060;-79
2024/03/07 11:49:13;;;;;;;45.33;24.52;;;9.10;85.60;;;;;;4069252;29;20057;-79
2024/03/07 11:51:22;;;;;;;47.33;26.27;;;9.20;85.90;;;;;;4069020;29;20059;-79
2024/03/07 11:53:24;;;;;;;47.50;25.25;;;9.00;85.50;;;;;;4072545;29;20059;-80
2024/03/07 11:55:25;;;;;;;51.03;26.85;;;9.00;86.60;;;;;;4084804;29;20055;-79
2024/03/07 11:57:32;;;;;;;55.70;28.90;;;9.10;86.70;;;;;;4085083;29;20119;-79
2024/03/07 11:59:37;;;;;;;53.17;29.13;;;9.20;87.20;;;;;;4084341;29;20529;-80
2024/03/07 12:01:39;;;;;;;51.75;28.85;;;9.10;86.10;;;;;;4084632;29;20123;-80
2024/03/07 12:03:40;;;;;;;51.42;29.17;;;9.10;86.60;;;;;;4084236;29;20071;-80
2024/03/07 12:05:43;;;;;;;53.42;29.13;;;9.10;87.30;;;;;;4084263;29;20062;-77
2024/03/07 12:07:45;;;;;;;51.65;29.17;;;9.10;87.50;;;;;;4084576;29;20052;-76
2024/03/07 12:09:50;;;;;;;48.85;29.50;;;9.10;86.80;;;;;;4085137;29;20128;-75
2024/03/07 12:11:52;;;;;;;55.00;30.43;;;9.00;87.00;;;;;;4084521;29;20071;-78
2024/03/07 12:13:56;;;;;;;60.90;32.97;;;9.00;87.00;;;;;;4084353;29;20800;-77
2024/03/07 12:15:58;;;;;;;58.80;31.42;;;8.90;86.00;;;;;;4084254;29;20087;-78
2024/03/07 12:18:02;;;;;;;51.38;30.75;;;9.00;87.30;;;;;;4083967;29;20056;-78
2024/03/07 12:20:24;;;;;;;57.13;32.70;;;9.00;86.80;;;;;;4070530;29;20060;-78
2024/03/07 12:22:27;;;;;;;60.22;32.22;;;9.00;87.30;;;;;;4068681;29;20044;-78
2024/03/07 12:24:29;;;;;;;63.15;35.78;;;9.00;87.10;;;;;;4068788;29;20136;-79
2024/03/07 12:26:32;;;;;;;55.92;32.15;;;9.10;87.10;;;;;;4068211;29;20062;-79
2024/03/07 12:28:34;;;;;;;57.10;32.70;;;9.10;86.40;;;;;;4068493;29;20056;-78
2024/03/07 12:30:49;;;;;;;55.30;31.20;;;9.10;86.20;;;;;;4068620;29;20060;-76
2024/03/07 12:32:50;;;;;;;57.15;31.05;;;9.10;85.90;;;;;;4068164;29;20488;-78
2024/03/07 12:34:52;;;;;;;57.20;31.20;;;9.20;85.60;;;;;;4066628;29;20052;-76
2024/03/07 12:36:56;;;;;;;54.05;29.60;;;9.10;84.90;;;;;;4068403;29;20056;-75
2024/03/07 12:38:58;;;;;;;61.95;32.85;;;9.20;86.10;;;;;;4067611;29;20087;-79
2024/03/07 12:41:05;;;;;;;50.38;29.55;;;9.30;85.60;;;;;;4051803;29;20514;-78
2024/03/07 12:43:16;;;;;;;51.22;30.50;;;9.20;84.40;;;;;;4069633;29;20415;-79
2024/03/07 12:45:18;;;;;;;53.95;29.40;;;9.20;83.70;;;;;;4068654;29;20483;-79
2024/03/07 12:47:25;;;;;;;48.33;29.05;;;9.10;83.70;;;;;;4067506;29;20056;-79
2024/03/07 12:49:27;;;;;;;54.63;29.92;;;9.00;83.30;;;;;;4067643;29;20048;-78
2024/03/07 12:51:29;;;;;;;83.35;44.88;;;9.00;83.60;;;;;;4067563;29;20077;-79
2024/03/07 12:53:31;;;;;;;52.38;30.63;;;9.00;84.40;;;;;;4067703;29;20051;-78
2024/03/07 12:55:33;;;;;;;46.47;29.20;;;9.00;84.90;;;;;;4067584;29;20071;-79
2024/03/07 12:57:35;;;;;;;51.33;29.67;;;9.00;83.10;;;;;;4067716;29;20079;-79
2024/03/07 12:59:39;;;;;;;47.22;29.30;;;9.00;82.80;;;;;;4067635;29;20055;-79
2024/03/07 13:01:44;;;;;;;47.05;29.23;;;9.10;83.40;;;;;;4067367;29;20083;-79
2024/03/07 13:03:49;;;;;;;48.25;29.77;;;9.10;83.60;;;;;;4066733;29;20406;-78
2024/03/07 13:05:51;;;;;;;51.08;29.73;;;9.10;83.80;;;;;;4067537;29;20047;-79
2024/03/07 13:07:52;;;;;;;47.42;28.58;;;9.00;84.10;;;;;;4068364;29;20107;-78
2024/03/07 13:09:55;;;;;;;48.20;29.98;;;9.00;84.00;;;;;;4083272;29;20056;-79
2024/03/07 13:12:00;;;;;;;42.80;27.65;;;9.00;83.20;;;;;;4083105;29;20070;-79
2024/03/07 13:14:02;;;;;;;46.05;29.13;;;9.10;83.70;;;;;;4082839;29;20063;-79
2024/03/07 13:16:04;;;;;;;54.38;31.75;;;9.20;83.20;;;;;;4082516;29;20158;-80
2024/03/07 13:18:08;;;;;;;54.97;30.52;;;9.10;81.70;;;;;;4083046;29;20408;-78
2024/03/07 13:20:14;;;;;;;52.47;31.23;;;9.10;83.40;;;;;;4083070;29;20557;-79
2024/03/07 13:22:15;;;;;;;48.78;30.05;;;9.10;83.90;;;;;;4083278;29;20106;-79
2024/03/07 13:24:17;;;;;;;53.25;32.25;;;9.10;84.20;;;;;;4083059;29;20106;-77
2024/03/07 13:26:24;;;;;;;49.50;31.02;;;9.10;84.60;;;;;;4083195;29;20102;-77
2024/03/07 13:28:28;;;;;;;50.20;29.60;;;9.10;84.10;;;;;;4082790;29;20051;-78
2024/03/07 13:30:30;;;;;;;50.03;30.42;;;9.10;84.40;;;;;;4083037;29;20118;-79
2024/03/07 13:32:32;;;;;;;52.30;29.88;;;9.00;84.20;;;;;;4082698;29;20056;-77
2024/03/07 13:34:34;;;;;;;48.90;30.25;;;9.00;83.90;;;;;;4079253;29;20060;-80
2024/03/07 13:36:37;;;;;;;50.35;29.45;;;9.00;85.10;;;;;;4082678;29;20111;-79
2024/03/07 13:38:39;;;;;;;46.55;28.30;;;9.00;85.00;;;;;;4082546;29;20099;-79
2024/03/07 13:40:42;;;;;;;46.33;28.67;;;9.00;84.90;;;;;;4082541;29;20048;-79
2024/03/07 13:42:42;;;;;;;47.25;28.48;;;9.00;85.00;;;;;;4082648;29;20461;-79
2024/03/07 13:44:44;;;;;;;47.17;28.80;;;9.00;85.30;;;;;;4082555;29;20043;-81
2024/03/07 13:46:46;;;;;;;46.20;28.30;;;9.00;85.80;;;;;;4082469;29;20059;-76
2024/03/07 13:48:48;;;;;;;45.65;29.10;;;9.10;87.20;;;;;;4082615;29;20044;-75
2024/03/07 13:50:50;;;;;;;44.95;27.70;;;9.10;86.10;;;;;;4082336;29;20063;-76
2024/03/07 13:53:10;;;;;;;43.47;26.27;;;9.10;86.80;;;;;;4075466;29;20131;-76
2024/03/07 13:55:12;;;;;;;44.53;26.75;;;9.20;87.10;;;;;;4079744;29;20116;-75
2024/03/07 13:57:28;;;;;;;46.30;27.35;;;9.20;86.10;;;;;;4082433;29;20051;-75
2024/03/07 13:59:59;;;;;;;41.45;26.17;;;9.30;86.30;;;;;;4067374;29;20107;-75
2024/03/07 14:02:30;;;;;;;44.88;26.38;;;9.30;85.70;;;;;;4066564;29;20103;-75
2024/03/07 14:05:15;;;;;;;42.65;25.70;;;9.40;84.20;;;;;;4066523;29;20056;-76
2024/03/07 14:07:42;;;;;;;43.22;27.27;;;9.40;84.40;;;;;;4066629;29;20066;-74
2024/03/07 14:10:32;;;;;;;48.15;28.98;;;9.40;84.30;;;;;;4066650;29;20059;-75
2024/03/07 14:12:52;;;;;;;43.08;26.27;;;9.40;84.00;;;;;;4051235;29;20443;-75
2024/03/07 14:15:46;;;;;;;41.80;26.55;;;9.40;84.80;;;;;;4051312;29;20048;-74
2024/03/07 14:18:52;;;;;;;43.13;27.30;;;9.50;85.10;;;;;;4054791;29;20456;-74
2024/03/07 14:21:35;;;;;;;42.35;27.00;;;9.50;83.90;;;;;;4054294;29;20180;-75
2024/03/07 14:24:09;;;;;;;44.70;27.25;;;9.50;83.00;;;;;;4039857;29;20064;-74
2024/03/07 14:26:55;;;;;;;42.25;26.40;;;9.50;82.80;;;;;;4054148;29;20056;-76
2024/03/07 14:29:16;;;;;;;44.72;26.88;;;9.50;83.10;;;;;;4054406;29;20060;-80
2024/03/07 14:31:18;;;;;;;44.10;28.02;;;9.50;82.70;;;;;;4054201;29;20156;-81
2024/03/07 14:33:21;;;;;;;42.28;26.60;;;9.50;82.10;;;;;;4052040;29;20108;-80
2024/03/07 14:35:35;;;;;;;44.28;26.98;;;9.50;82.60;;;;;;4054055;29;20056;-80
2024/03/07 14:37:46;;;;;;;42.50;26.45;;;9.50;82.10;;;;;;4053874;29;20062;-79
2024/03/07 14:39:51;;;;;;;43.88;27.77;;;9.40;82.10;;;;;;4053817;29;20116;-77
2024/03/07 14:41:59;;;;;;;45.63;28.27;;;9.40;81.90;;;;;;4054064;29;20078;-79
2024/03/07 14:44:01;;;;;;;43.78;27.23;;;9.40;81.80;;;;;;4054017;29;20053;-78
2024/03/07 14:46:05;;;;;;;43.97;26.73;;;9.30;81.00;;;;;;4081353;29;20048;-80
2024/03/07 14:48:09;;;;;;;39.13;26.48;;;9.30;80.60;;;;;;4081417;29;20068;-80
2024/03/07 14:50:12;;;;;;;45.03;27.38;;;9.30;81.10;;;;;;4069647;29;20421;-76
2024/03/07 14:52:13;;;;;;;43.08;27.35;;;9.30;81.70;;;;;;4069298;29;20060;-80
2024/03/07 14:54:15;;;;;;;41.25;25.95;;;9.20;81.60;;;;;;4081902;29;20051;-79
2024/03/07 14:56:19;;;;;;;44.22;27.70;;;9.20;81.80;;;;;;4085220;29;20111;-79
2024/03/07 14:58:22;;;;;;;44.55;27.38;;;9.20;81.90;;;;;;4085095;29;20501;-79
2024/03/07 15:00:26;;;;;;;47.97;29.23;;;9.20;82.80;;;;;;4084894;29;20111;-80
2024/03/07 15:02:28;;;;;;;46.10;28.20;;;9.10;82.60;;;;;;4085241;29;20433;-78
2024/03/07 15:04:33;;;;;;;41.78;26.45;;;9.10;83.50;;;;;;4084895;29;20056;-80
2024/03/07 15:06:35;;;;;;;40.65;26.23;;;9.10;82.90;;;;;;4084878;29;20059;-77
2024/03/07 15:08:40;;;;;;;41.17;25.55;;;9.10;83.30;;;;;;4084729;29;20052;-80
2024/03/07 15:10:48;;;;;;;43.25;26.45;;;9.10;83.50;;;;;;4068651;29;20136;-78
2024/03/07 15:12:50;;;;;;;40.42;25.77;;;9.10;83.50;;;;;;4070122;29;20056;-78
2024/03/07 15:14:54;;;;;;;42.72;26.60;;;9.10;83.90;;;;;;4076626;29;20044;-80
2024/03/07 15:16:56;;;;;;;47.38;26.13;;;9.10;84.00;;;;;;4069173;29;20068;-79
2024/03/07 15:18:58;;;;;;;47.45;27.15;;;9.10;84.40;;;;;;4069258;29;20112;-77
2024/03/07 15:21:00;;;;;;;43.22;25.90;;;9.10;84.30;;;;;;4075440;29;20099;-80
2024/03/07 15:23:03;;;;;;;41.20;24.63;;;9.00;82.60;;;;;;4073760;29;20096;-78
2024/03/07 15:25:12;;;;;;;42.88;25.40;;;8.90;83.30;;;;;;4069218;29;20156;-78
2024/03/07 15:27:14;;;;;;;38.63;24.75;;;9.00;81.70;;;;;;4079914;29;20481;-78
2024/03/07 15:29:21;;;;;;;38.33;24.55;;;9.00;82.00;;;;;;4071962;29;20052;-79
2024/03/07 15:31:25;;;;;;;40.42;24.75;;;9.00;81.00;;;;;;4053208;29;20516;-80
2024/03/07 15:33:27;;;;;;;39.97;25.05;;;9.00;81.80;;;;;;4052672;29;20057;-79
2024/03/07 15:35:30;;;;;;;39.97;23.60;;;9.00;81.10;;;;;;4069070;29;20399;-80
2024/03/07 15:37:33;;;;;;;38.70;24.83;;;8.90;81.10;;;;;;4068947;29;20056;-79
2024/03/07 15:39:38;;;;;;;39.05;23.88;;;9.00;80.90;;;;;;4068360;29;20056;-79
2024/03/07 15:41:39;;;;;;;38.00;24.35;;;9.00;80.40;;;;;;4069021;29;20044;-79
2024/03/07 15:43:43;;;;;;;35.30;21.27;;;9.00;81.00;;;;;;4068507;29;20056;-79
2024/03/07 15:45:45;;;;;;;38.20;22.90;;;9.00;80.10;;;;;;4068869;29;20135;-79
2024/03/07 15:47:50;;;;;;;35.40;23.20;;;9.00;79.50;;;;;;4069571;29;20469;-78
2024/03/07 15:49:53;;;;;;;35.15;22.48;;;9.00;78.30;;;;;;4056419;29;20040;-79
2024/03/07 15:51:55;;;;;;;37.28;23.02;;;9.00;78.80;;;;;;4068733;29;20052;-78
2024/03/07 15:53:57;;;;;;;36.47;22.40;;;8.90;78.20;;;;;;4068073;29;20134;-78
2024/03/07 15:55:59;;;;;;;34.75;22.15;;;9.00;78.90;;;;;;4068487;29;20475;-78
2024/03/07 15:58:06;;;;;;;32.85;21.48;;;9.00;80.20;;;;;;4068483;29;20082;-78
2024/03/07 16:00:22;;;;;;;35.22;21.83;;;9.00;79.30;;;;;;4068242;29;20079;-79
2024/03/07 16:02:24;;;;;;;37.15;22.67;;;9.00;78.80;;;;;;4068100;29;20142;-78
2024/03/07 16:04:27;;;;;;;36.63;22.67;;;9.00;79.50;;;;;;4068126;29;20147;-79
2024/03/07 16:06:29;;;;;;;37.97;23.58;;;9.00;80.30;;;;;;4068258;29;20044;-80
2024/03/07 16:08:33;;;;;;;38.20;23.65;;;9.00;80.10;;;;;;4067909;29;20055;-79
2024/03/07 16:10:37;;;;;;;35.78;23.17;;;8.90;79.30;;;;;;4068196;29;20498;-77
2024/03/07 16:12:40;;;;;;;39.22;24.10;;;8.80;78.70;;;;;;4068789;29;20059;-78
2024/03/07 16:14:42;;;;;;;36.45;23.75;;;8.80;79.80;;;;;;4067975;29;20143;-78
2024/03/07 16:16:44;;;;;;;37.42;23.35;;;8.80;79.50;;;;;;4078041;29;20138;-78
2024/03/07 16:18:45;;;;;;;57.40;33.40;;;8.80;79.40;;;;;;4083937;29;20114;-80
2024/03/07 16:20:49;;;;;;;41.33;24.98;;;8.80;79.40;;;;;;4083810;29;20066;-80
2024/03/07 16:22:51;;;;;;;37.13;21.95;;;8.80;80.60;;;;;;4083805;29;20102;-80
2024/03/07 16:24:51;;;;;;;33.28;21.10;;;8.80;80.00;;;;;;4083621;29;20465;-79
2024/03/07 16:26:53;;;;;;;32.90;20.17;;;8.80;79.80;;;;;;4079934;29;20044;-78
2024/03/07 16:28:55;;;;;;;33.67;20.05;;;8.80;79.10;;;;;;4078479;29;20051;-80
2024/03/07 16:31:01;;;;;;;36.38;22.38;;;8.80;79.00;;;;;;4083778;29;20126;-79
2024/03/07 16:33:04;;;;;;;34.67;22.73;;;8.80;79.60;;;;;;4078081;29;20079;-79
2024/03/07 16:35:09;;;;;;;38.30;23.63;;;8.80;79.80;;;;;;4068153;29;20099;-79
2024/03/07 16:37:13;;;;;;;36.30;22.73;;;8.80;80.60;;;;;;4067840;29;20119;-79
2024/03/07 16:39:15;;;;;;;33.90;21.88;;;8.80;80.40;;;;;;4066566;29;20138;-80
2024/03/07 16:41:18;;;;;;;34.08;21.30;;;8.80;80.10;;;;;;4067801;29;20048;-80
2024/03/07 16:43:18;;;;;;;32.53;21.08;;;8.80;80.30;;;;;;4067730;29;20087;-79